createdAt,value
2023-03-10T00:01:30.379Z,17.50
2023-03-10T00:03:59.949Z,16.50
2023-03-10T00:06:32.724Z,17.50
2023-03-10T00:09:00.916Z,18.25
2023-03-10T00:11:29.283Z,17.50
2023-03-10T00:13:57.469Z,15.00
2023-03-10T00:16:29.216Z,17.75
2023-03-10T00:18:58.114Z,17.75
2023-03-10T00:21:30.045Z,16.00
2023-03-10T00:23:59.092Z,16.50
2023-03-10T00:26:29.182Z,19.00
2023-03-10T00:28:57.615Z,17.00
2023-03-10T00:31:27.633Z,18.50
2023-03-10T00:33:56.247Z,18.75
2023-03-10T00:36:27.759Z,17.50
2023-03-10T00:38:56.593Z,16.75
2023-03-10T00:41:26.840Z,18.67
2023-03-10T00:43:55.109Z,17.50
2023-03-10T00:46:25.751Z,19.00
2023-03-10T00:48:54.050Z,17.25
2023-03-10T00:51:23.052Z,18.00
2023-03-10T00:53:51.504Z,18.50
2023-03-10T00:56:23.093Z,16.25
2023-03-10T00:58:54.196Z,17.00
2023-03-10T01:01:28.234Z,18.50
2023-03-10T01:03:57.983Z,18.25
2023-03-10T01:06:26.580Z,17.00
2023-03-10T01:08:54.936Z,19.00
2023-03-10T01:11:26.353Z,16.25
2023-03-10T01:13:57.766Z,18.33
2023-03-10T01:16:26.608Z,17.75
2023-03-10T01:18:57.081Z,17.75
2023-03-10T01:21:28.828Z,17.00
2023-03-10T01:23:57.079Z,18.00
2023-03-10T01:26:25.672Z,17.00
2023-03-10T01:28:53.767Z,17.50
2023-03-10T01:31:22.213Z,16.25
2023-03-10T01:33:50.239Z,15.75
2023-03-10T01:36:22.925Z,17.25
2023-03-10T01:38:50.907Z,16.25
2023-03-10T01:41:20.294Z,16.25
2023-03-10T01:43:53.518Z,16.50
2023-03-10T01:46:35.158Z,17.00
2023-03-10T01:49:37.061Z,17.00
2023-03-10T01:52:16.339Z,16.00
2023-03-10T01:54:57.524Z,18.50
2023-03-10T01:57:38.142Z,17.00
2023-03-10T02:00:15.133Z,18.25
2023-03-10T02:02:56.013Z,18.00
2023-03-10T02:05:25.181Z,17.00
2023-03-10T02:07:54.884Z,17.25
2023-03-10T02:10:22.936Z,18.25
2023-03-10T02:12:54.330Z,17.00
2023-03-10T02:15:22.376Z,19.00
2023-03-10T02:17:52.849Z,18.00
2023-03-10T02:20:41.340Z,17.00
2023-03-10T02:23:10.965Z,17.00
2023-03-10T02:26:28.497Z,17.00
2023-03-10T02:28:58.990Z,18.25
2023-03-10T02:31:27.525Z,19.67
2023-03-10T02:33:56.376Z,18.33
2023-03-10T02:36:25.046Z,17.75
2023-03-10T02:38:53.425Z,18.00
2023-03-10T02:41:29.396Z,17.50
2023-03-10T02:44:00.546Z,17.67
2023-03-10T02:46:30.600Z,17.33
2023-03-10T02:49:01.062Z,17.67
2023-03-10T02:51:47.968Z,18.33
2023-03-10T02:54:19.090Z,15.50
2023-03-10T02:56:47.153Z,17.25
2023-03-10T02:59:16.831Z,15.50
2023-03-10T03:01:51.133Z,17.25
2023-03-10T03:04:21.382Z,18.67
2023-03-10T03:06:49.694Z,16.00
2023-03-10T03:09:18.117Z,16.00
2023-03-10T03:11:47.517Z,16.75
2023-03-10T03:14:19.440Z,18.25
2023-03-10T03:16:49.638Z,16.00
2023-03-10T03:19:17.994Z,17.50
2023-03-10T03:21:50.201Z,15.33
2023-03-10T03:24:21.502Z,14.50
2023-03-10T03:26:50.060Z,16.50
2023-03-10T03:29:22.335Z,17.25
2023-03-10T03:31:50.561Z,16.50
2023-03-10T03:34:22.192Z,14.75
2023-03-10T03:36:53.814Z,14.00
2023-03-10T03:39:30.783Z,15.75
2023-03-10T03:42:02.290Z,15.75
2023-03-10T03:44:36.530Z,17.00
2023-03-10T03:47:05.470Z,16.00
2023-03-10T03:49:35.772Z,15.25
2023-03-10T03:52:04.781Z,16.25
2023-03-10T03:54:33.422Z,15.00
2023-03-10T03:57:01.577Z,15.00
2023-03-10T03:59:30.420Z,16.25
2023-03-10T04:01:58.430Z,18.00
2023-03-10T04:04:27.504Z,15.75
2023-03-10T04:06:56.634Z,14.75
2023-03-10T04:09:25.271Z,14.00
2023-03-10T04:11:53.376Z,14.50
2023-03-10T04:14:22.578Z,14.33
2023-03-10T04:16:50.924Z,15.33
2023-03-10T04:19:19.212Z,16.00
2023-03-10T04:21:50.136Z,16.50
2023-03-10T04:24:18.732Z,16.25
2023-03-10T04:26:46.904Z,14.25
2023-03-10T04:29:15.274Z,15.25
2023-03-10T04:31:53.075Z,14.67
2023-03-10T04:34:27.664Z,14.25
2023-03-10T04:36:55.608Z,14.75
2023-03-10T04:39:24.060Z,15.50
2023-03-10T04:41:52.143Z,14.50
2023-03-10T04:44:31.413Z,16.00
2023-03-10T04:47:02.334Z,15.00
2023-03-10T04:49:31.395Z,14.25
2023-03-10T04:52:00.630Z,14.75
2023-03-10T04:54:29.699Z,14.00
2023-03-10T04:56:58.126Z,14.00
2023-03-10T04:59:26.662Z,15.50
2023-03-10T05:01:55.391Z,15.00
2023-03-10T05:04:24.890Z,14.50
2023-03-10T05:06:55.005Z,14.00
2023-03-10T05:09:30.592Z,14.00
2023-03-10T05:11:58.679Z,14.67
2023-03-10T05:14:30.919Z,13.50
2023-03-10T05:16:58.989Z,12.00
2023-03-10T05:19:29.015Z,13.50
2023-03-10T05:21:59.032Z,14.00
2023-03-10T05:24:27.263Z,14.50
2023-03-10T05:26:55.340Z,12.50
2023-03-10T05:29:23.858Z,14.33
2023-03-10T05:31:56.870Z,12.25
2023-03-10T05:34:31.189Z,13.75
2023-03-10T05:37:02.410Z,13.50
2023-03-10T05:39:30.760Z,13.00
2023-03-10T05:42:02.061Z,14.50
2023-03-10T05:44:33.902Z,13.25
2023-03-10T05:47:04.052Z,13.50
2023-03-10T05:49:32.473Z,13.67
2023-03-10T05:52:00.638Z,13.75
2023-03-10T05:54:29.074Z,13.75
2023-03-10T05:56:57.361Z,12.00
2023-03-10T05:59:28.543Z,13.00
2023-03-10T06:01:57.092Z,13.00
2023-03-10T06:04:28.689Z,13.50
2023-03-10T06:06:56.702Z,12.00
2023-03-10T06:09:24.981Z,13.75
2023-03-10T06:11:52.966Z,13.00
2023-03-10T06:14:21.361Z,13.00
2023-03-10T06:16:51.581Z,13.75
2023-03-10T06:19:21.977Z,13.25
2023-03-10T06:21:50.374Z,13.00
2023-03-10T06:24:18.809Z,12.00
2023-03-10T06:26:46.826Z,12.33
2023-03-10T06:29:15.171Z,12.00
2023-03-10T06:31:43.247Z,13.25
2023-03-10T06:34:11.726Z,12.25
2023-03-10T06:36:40.555Z,13.25
2023-03-10T06:39:08.904Z,13.00
2023-03-10T06:41:37.890Z,12.75
2023-03-10T06:44:06.496Z,12.00
2023-03-10T06:46:34.490Z,11.75
2023-03-10T06:49:02.819Z,11.75
2023-03-10T06:51:30.822Z,13.00
2023-03-10T06:53:59.168Z,11.50
2023-03-10T06:56:27.205Z,13.50
2023-03-10T06:58:55.511Z,14.50
2023-03-10T07:01:34.101Z,13.00
2023-03-10T07:04:02.602Z,13.00
2023-03-10T07:06:30.744Z,13.00
2023-03-10T07:08:59.242Z,12.25
2023-03-10T07:11:27.883Z,12.00
2023-03-10T07:13:56.251Z,13.00
2023-03-10T07:16:24.584Z,13.33
2023-03-10T07:18:52.985Z,13.25
2023-03-10T07:21:21.431Z,14.00
2023-03-10T07:23:50.288Z,12.50
2023-03-10T07:26:19.074Z,14.00
2023-03-10T07:28:47.725Z,13.25
2023-03-10T07:31:16.578Z,13.25
2023-03-10T07:33:44.952Z,12.67
2023-03-10T07:36:16.503Z,12.75
2023-03-10T07:38:45.570Z,12.00
2023-03-10T07:41:19.521Z,12.00
2023-03-10T07:43:48.347Z,12.33
2023-03-10T07:46:16.471Z,12.00
2023-03-10T07:48:45.050Z,12.75
2023-03-10T07:51:13.155Z,12.00
2023-03-10T07:53:41.594Z,12.33
2023-03-10T07:56:11.554Z,12.00
2023-03-10T07:58:40.824Z,12.00
2023-03-10T08:01:15.278Z,12.25
2023-03-10T08:03:43.882Z,12.75
2023-03-10T08:06:25.884Z,12.25
2023-03-10T08:08:54.731Z,12.50
2023-03-10T08:11:23.241Z,13.50
2023-03-10T08:13:51.758Z,13.25
2023-03-10T08:16:21.644Z,12.50
2023-03-10T08:18:52.430Z,13.00
2023-03-10T08:21:20.661Z,12.50
2023-03-10T08:23:49.000Z,11.67
2023-03-10T08:26:18.428Z,11.50
2023-03-10T08:28:47.457Z,11.50
2023-03-10T08:31:18.457Z,12.00
2023-03-10T08:33:47.048Z,11.00
2023-03-10T08:36:23.493Z,11.00
2023-03-10T08:38:53.636Z,10.00
2023-03-10T08:41:29.412Z,11.25
2023-03-10T08:43:58.700Z,12.00
2023-03-10T08:46:28.930Z,10.75
2023-03-10T08:48:58.026Z,11.00
2023-03-10T08:51:26.438Z,11.50
2023-03-10T08:53:56.545Z,10.50
2023-03-10T08:56:24.999Z,10.50
2023-03-10T08:59:01.112Z,9.67
2023-03-10T09:01:32.913Z,10.50
2023-03-10T09:04:02.725Z,11.00
2023-03-10T09:06:30.935Z,11.67
2023-03-10T09:08:59.293Z,10.75
2023-03-10T09:11:31.729Z,10.00
2023-03-10T09:14:01.561Z,10.00
2023-03-10T09:16:30.269Z,10.50
2023-03-10T09:18:58.942Z,11.33
2023-03-10T09:21:27.721Z,9.50
2023-03-10T09:23:56.148Z,10.00
2023-03-10T09:26:24.190Z,10.50
2023-03-10T09:28:53.405Z,9.75
2023-03-10T09:31:25.899Z,10.00
2023-03-10T09:33:54.357Z,10.25
2023-03-10T09:36:22.857Z,10.67
2023-03-10T09:38:51.117Z,9.75
2023-03-10T09:41:21.898Z,10.00
2023-03-10T09:44:02.412Z,10.00
2023-03-10T09:46:52.747Z,10.00
2023-03-10T09:49:39.812Z,9.75
2023-03-10T09:52:20.093Z,9.50
2023-03-10T09:54:54.234Z,9.33
2023-03-10T09:57:23.372Z,10.50
2023-03-10T09:59:56.143Z,10.00
2023-03-10T10:02:28.321Z,10.00
2023-03-10T10:05:00.865Z,8.75
2023-03-10T10:07:42.441Z,10.25
2023-03-10T10:10:37.299Z,9.00
2023-03-10T10:13:14.481Z,9.25
2023-03-10T10:15:47.466Z,10.00
2023-03-10T10:18:27.024Z,9.00
2023-03-10T10:21:33.535Z,9.25
2023-03-10T10:24:08.348Z,9.00
2023-03-10T10:26:36.669Z,9.00
2023-03-10T10:29:47.264Z,8.25
2023-03-10T10:32:16.716Z,9.00
2023-03-10T10:34:46.244Z,9.50
2023-03-10T10:37:26.766Z,9.25
2023-03-10T10:39:56.602Z,9.00
2023-03-10T10:42:28.038Z,9.00
2023-03-10T10:45:22.086Z,9.00
2023-03-10T10:47:52.034Z,9.50
2023-03-10T10:50:44.833Z,8.00
2023-03-10T10:53:15.849Z,9.00
2023-03-10T10:55:46.149Z,8.75
2023-03-10T10:59:00.731Z,9.00
2023-03-10T11:02:08.857Z,8.33
2023-03-10T11:04:46.449Z,9.00
2023-03-10T11:07:20.111Z,8.75
2023-03-10T11:09:48.482Z,10.00
2023-03-10T11:12:41.530Z,9.50
2023-03-10T11:15:37.522Z,8.75
2023-03-10T11:18:22.911Z,9.00
2023-03-10T11:21:22.742Z,9.00
2023-03-10T11:24:13.833Z,8.67
2023-03-10T11:26:48.407Z,8.75
2023-03-10T11:29:39.398Z,8.00
2023-03-10T11:32:26.583Z,9.25
2023-03-10T11:34:54.662Z,8.33
2023-03-10T11:37:43.416Z,10.00
2023-03-10T11:40:26.685Z,10.50
2023-03-10T11:43:01.293Z,10.00
2023-03-10T11:45:38.053Z,10.00
2023-03-10T11:48:19.206Z,9.50
2023-03-10T11:50:47.223Z,12.50
2023-03-10T11:53:24.332Z,11.00
2023-03-10T11:55:54.253Z,10.50
2023-03-10T11:58:32.542Z,11.50
2023-03-10T12:01:01.092Z,10.25
2023-03-10T12:04:10.321Z,11.25
2023-03-10T12:06:44.862Z,11.00
2023-03-10T12:09:27.261Z,9.75
2023-03-10T12:11:56.417Z,11.67
2023-03-10T12:14:26.281Z,11.00
2023-03-10T12:16:54.681Z,10.50
2023-03-10T12:19:23.231Z,11.00
2023-03-10T12:22:37.591Z,12.25
2023-03-10T12:25:28.709Z,11.33
2023-03-10T12:28:25.495Z,13.50
2023-03-10T12:31:02.605Z,11.25
2023-03-10T12:33:30.593Z,12.00
2023-03-10T12:36:32.940Z,12.00
2023-03-10T12:39:28.829Z,11.25
2023-03-10T12:41:58.260Z,12.50
2023-03-10T12:44:35.224Z,13.50
2023-03-10T12:47:09.360Z,11.75
2023-03-10T12:50:02.123Z,12.00
2023-03-10T12:52:49.719Z,10.75
2023-03-10T12:55:24.758Z,10.00
2023-03-10T12:57:52.985Z,10.50
2023-03-10T13:00:32.828Z,9.75
2023-03-10T13:03:06.676Z,9.25
2023-03-10T13:05:39.480Z,10.00
2023-03-10T13:08:25.189Z,10.00
2023-03-10T13:10:56.050Z,9.50
2023-03-10T13:13:30.909Z,9.50
2023-03-10T13:16:05.340Z,9.25
2023-03-10T13:18:35.055Z,9.00
2023-03-10T13:21:03.189Z,9.75
2023-03-10T13:23:36.663Z,9.50
2023-03-10T13:26:08.133Z,8.25
2023-03-10T13:28:37.503Z,9.00
2023-03-10T13:31:18.488Z,8.33
2023-03-10T13:33:53.484Z,7.50
2023-03-10T13:36:25.230Z,8.00
2023-03-10T13:38:53.570Z,8.67
2023-03-10T13:41:22.030Z,9.00
2023-03-10T13:43:54.705Z,8.75
2023-03-10T13:46:27.248Z,8.00
2023-03-10T13:49:03.861Z,8.50
2023-03-10T13:51:35.431Z,8.00
2023-03-10T13:54:12.821Z,10.00
2023-03-10T13:56:42.614Z,8.25
2023-03-10T13:59:22.241Z,7.25
2023-03-10T14:01:54.090Z,8.25
2023-03-10T14:04:50.176Z,7.50
2023-03-10T14:07:23.867Z,7.75
2023-03-10T14:10:10.620Z,7.50
2023-03-10T14:12:50.681Z,8.00
2023-03-10T14:15:26.104Z,7.50
2023-03-10T14:18:09.282Z,8.00
2023-03-10T14:20:43.041Z,6.75
2023-03-10T14:23:20.156Z,9.00
2023-03-10T14:25:53.637Z,8.00
2023-03-10T14:28:28.021Z,8.50
2023-03-10T14:30:56.591Z,7.75
2023-03-10T14:33:24.724Z,7.75
2023-03-10T14:35:53.086Z,7.25
2023-03-10T14:38:21.090Z,7.75
2023-03-10T14:40:54.360Z,7.67
2023-03-10T14:43:24.597Z,7.00
2023-03-10T14:45:55.624Z,6.75
2023-03-10T14:48:25.971Z,7.00
2023-03-10T14:50:56.980Z,7.00
2023-03-10T14:53:26.906Z,7.75
2023-03-10T14:55:56.952Z,7.00
2023-03-10T14:58:32.368Z,6.33
2023-03-10T15:01:01.238Z,7.25
2023-03-10T15:03:29.410Z,7.00
2023-03-10T15:05:57.930Z,6.75
2023-03-10T15:08:27.121Z,7.00
2023-03-10T15:10:57.301Z,7.50
2023-03-10T15:13:25.481Z,6.50
2023-03-10T15:15:54.014Z,7.00
2023-03-10T15:18:23.559Z,7.00
2023-03-10T15:20:52.073Z,6.50
2023-03-10T15:23:22.587Z,7.00
2023-03-10T15:25:52.373Z,7.00
2023-03-10T15:28:21.133Z,7.00
2023-03-10T15:30:49.872Z,8.00
2023-03-10T15:33:17.980Z,7.00
2023-03-10T15:35:46.383Z,8.00
2023-03-10T15:38:15.364Z,7.00
2023-03-10T15:40:43.936Z,7.00
2023-03-10T15:43:12.121Z,7.50
2023-03-10T15:45:43.197Z,7.67
2023-03-10T15:48:11.368Z,7.00
2023-03-10T15:50:44.700Z,6.75
2023-03-10T15:53:13.280Z,7.25
2023-03-10T15:55:42.552Z,7.33
2023-03-10T15:58:11.688Z,7.00
2023-03-10T16:00:42.689Z,7.75
2023-03-10T16:03:12.662Z,8.50
2023-03-10T16:05:48.142Z,7.25
2023-03-10T16:08:16.886Z,7.33
2023-03-10T16:10:55.296Z,7.25
2023-03-10T16:13:23.965Z,7.50
2023-03-10T16:15:53.018Z,7.75
2023-03-10T16:18:21.200Z,8.00
2023-03-10T16:20:59.746Z,8.00
2023-03-10T16:23:29.269Z,8.00
2023-03-10T16:26:09.559Z,8.25
2023-03-10T16:28:39.444Z,8.00
2023-03-10T16:31:08.624Z,8.25
2023-03-10T16:33:36.909Z,8.50
2023-03-10T16:36:07.584Z,8.00
2023-03-10T16:38:36.055Z,8.25
2023-03-10T16:41:04.950Z,9.00
2023-03-10T16:43:33.693Z,9.00
2023-03-10T16:46:13.159Z,8.25
2023-03-10T16:48:45.959Z,8.75
2023-03-10T16:51:22.518Z,9.00
2023-03-10T16:53:51.709Z,9.25
2023-03-10T16:56:20.697Z,8.33
2023-03-10T16:58:48.822Z,10.25
2023-03-10T17:01:17.506Z,9.75
2023-03-10T17:03:46.271Z,9.50
2023-03-10T17:06:18.829Z,10.67
2023-03-10T17:08:47.240Z,10.00
2023-03-10T17:11:27.298Z,10.00
2023-03-10T17:13:57.819Z,10.33
2023-03-10T17:16:29.629Z,10.00
2023-03-10T17:19:00.620Z,11.00
2023-03-10T17:21:36.178Z,10.50
2023-03-10T17:24:04.923Z,10.75
2023-03-10T17:26:34.827Z,11.00
2023-03-10T17:29:03.363Z,9.50
2023-03-10T17:31:32.419Z,11.50
2023-03-10T17:34:05.762Z,11.67
2023-03-10T17:36:34.938Z,11.50
2023-03-10T17:39:04.831Z,11.75
2023-03-10T17:41:36.172Z,12.25
2023-03-10T17:44:07.533Z,13.50
2023-03-10T17:46:36.314Z,12.33
2023-03-10T17:49:04.602Z,13.00
2023-03-10T17:51:33.684Z,14.50
2023-03-10T17:54:01.994Z,12.75
2023-03-10T17:56:30.786Z,13.50
2023-03-10T17:58:59.076Z,12.75
2023-03-10T18:01:29.965Z,12.25
2023-03-10T18:04:00.133Z,12.67
2023-03-10T18:06:31.831Z,13.00
2023-03-10T18:09:01.230Z,13.75
2023-03-10T18:11:30.020Z,13.67
2023-03-10T18:13:58.697Z,13.50
2023-03-10T18:16:30.127Z,12.75
2023-03-10T18:18:59.729Z,14.00
2023-03-10T18:21:28.703Z,14.25
2023-03-10T18:23:57.073Z,12.75
2023-03-10T18:26:29.803Z,13.00
2023-03-10T18:28:59.854Z,14.00
2023-03-10T18:31:31.861Z,13.75
2023-03-10T18:34:00.806Z,13.50
2023-03-10T18:36:30.196Z,15.25
2023-03-10T18:38:58.808Z,13.00
2023-03-10T18:41:31.065Z,11.75
2023-03-10T18:44:00.805Z,13.67
2023-03-10T18:46:29.826Z,12.25
2023-03-10T18:48:58.527Z,12.00
2023-03-10T18:51:28.436Z,12.25
2023-03-10T18:54:04.395Z,11.75
2023-03-10T18:56:38.807Z,13.00
2023-03-10T18:59:07.047Z,12.25
2023-03-10T19:01:35.933Z,12.50
2023-03-10T19:04:04.453Z,13.67
2023-03-10T19:06:34.032Z,13.33
2023-03-10T19:09:02.273Z,12.50
2023-03-10T19:11:35.734Z,13.00
2023-03-10T19:14:05.673Z,13.00
2023-03-10T19:16:40.153Z,11.75
2023-03-10T19:19:08.475Z,13.00
2023-03-10T19:21:38.240Z,13.75
2023-03-10T19:24:06.918Z,11.75
2023-03-10T19:26:35.619Z,12.00
2023-03-10T19:29:04.193Z,13.00
2023-03-10T19:31:32.970Z,13.25
2023-03-10T19:34:01.431Z,13.50
2023-03-10T19:36:30.036Z,11.75
2023-03-10T19:38:58.304Z,11.25
2023-03-10T19:41:27.084Z,11.00
2023-03-10T19:43:55.278Z,12.50
2023-03-10T19:46:23.981Z,11.25
2023-03-10T19:48:52.473Z,10.50
2023-03-10T19:51:24.445Z,11.50
2023-03-10T19:53:54.824Z,10.00
2023-03-10T19:56:25.695Z,10.67
2023-03-10T19:58:54.009Z,10.33
2023-03-10T20:01:25.293Z,9.00
2023-03-10T20:03:59.766Z,10.00
2023-03-10T20:06:29.304Z,10.00
2023-03-10T20:08:57.584Z,10.75
2023-03-10T20:11:26.388Z,10.25
2023-03-10T20:13:54.858Z,9.25
2023-03-10T20:16:24.453Z,10.50
2023-03-10T20:18:53.122Z,11.00
2023-03-10T20:21:21.806Z,10.75
2023-03-10T20:23:50.046Z,10.50
2023-03-10T20:26:37.605Z,11.50
2023-03-10T20:29:05.804Z,10.00
2023-03-10T20:31:34.650Z,9.00
2023-03-10T20:34:05.578Z,9.75
2023-03-10T20:36:34.532Z,9.00
2023-03-10T20:39:02.765Z,9.75
2023-03-10T20:41:31.389Z,9.00
2023-03-10T20:43:59.657Z,8.75
2023-03-10T20:46:28.402Z,10.00
2023-03-10T20:48:56.650Z,9.75
2023-03-10T20:51:25.182Z,9.00
2023-03-10T20:53:53.402Z,9.50
2023-03-10T20:56:22.183Z,9.00
2023-03-10T20:58:50.389Z,9.75
2023-03-10T21:01:21.158Z,9.00
2023-03-10T21:03:49.259Z,10.25
2023-03-10T21:06:17.626Z,9.00
2023-03-10T21:08:46.055Z,10.00
2023-03-10T21:11:15.805Z,9.50
2023-03-10T21:13:44.148Z,8.67
2023-03-10T21:16:12.545Z,10.50
2023-03-10T21:18:40.741Z,9.67
2023-03-10T21:21:09.862Z,9.00
2023-03-10T21:23:47.719Z,8.25
2023-03-10T21:26:18.987Z,8.75
2023-03-10T21:28:47.624Z,7.50
2023-03-10T21:31:17.189Z,8.50
2023-03-10T21:33:45.280Z,8.25
2023-03-10T21:36:19.288Z,9.00
2023-03-10T21:38:48.970Z,8.25
2023-03-10T21:41:22.872Z,8.00
2023-03-10T21:43:54.539Z,8.00
2023-03-10T21:46:24.484Z,8.50
2023-03-10T21:48:52.543Z,8.25
2023-03-10T21:51:23.383Z,7.25
2023-03-10T21:53:53.803Z,7.75
2023-03-10T21:56:26.171Z,8.00
2023-03-10T21:58:54.171Z,7.67
2023-03-10T22:01:23.521Z,7.00
2023-03-10T22:03:51.573Z,7.50
2023-03-10T22:06:19.998Z,7.25
2023-03-10T22:08:48.345Z,7.00
2023-03-10T22:11:17.191Z,7.67
2023-03-10T22:13:45.216Z,7.00
2023-03-10T22:16:17.567Z,7.00
2023-03-10T22:18:46.339Z,7.50
2023-03-10T22:21:14.827Z,7.00
2023-03-10T22:23:44.087Z,7.00
2023-03-10T22:26:13.634Z,7.00
2023-03-10T22:28:41.602Z,6.50
2023-03-10T22:31:10.796Z,7.00
2023-03-10T22:33:39.001Z,6.00
2023-03-10T22:36:09.675Z,6.25
2023-03-10T22:38:37.769Z,7.00
2023-03-10T22:41:10.849Z,6.67
2023-03-10T22:43:38.819Z,6.25
2023-03-10T22:46:15.485Z,6.67
2023-03-10T22:48:44.395Z,7.00
2023-03-10T22:51:15.512Z,6.00
2023-03-10T22:53:44.121Z,7.00
2023-03-10T22:56:12.373Z,6.25
2023-03-10T22:58:40.583Z,7.00
2023-03-10T23:01:09.182Z,7.00
2023-03-10T23:03:37.338Z,6.75
2023-03-10T23:06:06.740Z,6.50
2023-03-10T23:08:37.640Z,6.75
2023-03-10T23:11:11.016Z,6.67
2023-03-10T23:13:39.190Z,6.25
2023-03-10T23:16:07.929Z,6.75
2023-03-10T23:18:35.998Z,6.50
2023-03-10T23:21:05.317Z,6.00
2023-03-10T23:23:33.306Z,6.00
2023-03-10T23:26:01.825Z,6.25
2023-03-10T23:28:29.798Z,6.50
2023-03-10T23:30:59.863Z,6.25
2023-03-10T23:33:28.903Z,6.00
2023-03-10T23:35:57.198Z,5.75
2023-03-10T23:38:26.045Z,6.00
2023-03-10T23:40:55.616Z,6.25
2023-03-10T23:43:24.131Z,6.00
2023-03-10T23:45:52.681Z,6.33
2023-03-10T23:48:20.863Z,6.50
2023-03-10T23:50:49.211Z,6.50
2023-03-10T23:53:20.140Z,6.00
2023-03-10T23:55:49.312Z,6.67
2023-03-10T23:58:18.142Z,6.00
